PANC/ANC METAR and TAF weather

Enter ICAO airport designator
Station Type Date Time Source
PANC METAR 2022/08/12 14:53 UTC NOAA

PANC 121453Z VRB04KT 10SM -RA FEW010 SCT060 OVC095 13/12 A2989 RMK AO2 RAE1357B14 SLP121 P0001 60007 T01330122 58009


Station Type Date Time Source
PANC Decoded METAR 2022/08/12 14:53 UTC NOAA

TED STEVENS ANCHORAGE INTERNATIONAL , AK, United States (PANC) 61-10N 150-02W 48M
Aug 12, 2022 - 10:53 AM EDT / 2022.08.12 1453 UTC
Wind: Variable at 5 MPH (4 KT):0
Visibility: 10 mile(s):0
Sky conditions: overcast
Weather: light rain
Precipitation last hour: 0.01 inches
Temperature: 55.9 F (13.3 C)
Dew Point: 54.0 F (12.2 C)
Relative Humidity: 93%
Pressure (altimeter): 29.89 in. Hg (1012 hPa)
Pressure tendency: 0.03 inches (0.9 hPa) lower than three hours ago
ob: PANC 121453Z VRB04KT 10SM -RA FEW010 SCT060 OVC095 13/12 A2989 RMK AO2 RAE1357B14 SLP121 P0001 60007 T01330122 58009
cycle: 15

Station Type Date Time Source
PANC TAF 2022/08/12 12:30 UTC NOAA

TAF PANC 121129Z 1212/1318 VRB06KT P6SM -RA BKN050 OVC080

Example: see airport list